M I D A S
Marine Information and Data Acquisition System
Tripno 901 of the Zeeleeuw from 2005-05-17 07:33:26 to 2005-05-17 10:59:46
Back to CruiseResearch ActivitiesStationsMapUnderway DataData graphs

EquipmentUnitsComment
TimeDGPSUTC
LatitudeDGPSDM.mWGS84
LongitudeDGPSDM.mWGS84
TemperatureSBE03/SBE38deg celciusITS90
ConductivitySBE21S/mITS90
SalinitySBE21 Practical Salinity Units
ChlorophylAChelsea fluorimeterg/lCalibrated in Aceton
Missing or incorrect values are displayed as -999
Sea surface data collected by the RV Zeeleeuw from 2005-05-17 07:28:40 to 2005-05-17 11:10:10
Time Latitude Longitude Temperature Conductivity Salinity ChlorophylA
2005-05-17 07:29:45 51°13.614 2°56.042 18.3506 0.071788 0.41372 -0.545283
2005-05-17 07:30:46 51°13.647 2°55.938 18.4183 0.071788 0.413762 -0.511574
2005-05-17 07:31:45 51°13.687 2°55.836 18.4001 0.071788 0.413798 -0.545283
2005-05-17 07:32:45 51°13.741 2°55.74 18.3829 0.071788 0.413848 -0.545283
2005-05-17 07:33:45 51°13.809 2°55.666 18.455 0.071788 0.413891 -0.545283
2005-05-17 07:34:46 51°13.881 2°55.642 13.9124 0.07158 0.413387 -0.545283
2005-05-17 07:35:44 51°13.932 2°55.664 12.5842 3.172415 25.998292 14.758785
2005-05-17 07:36:45 51°13.95 2°55.579 12.5228 3.139254 26.104899 13.107024
2005-05-17 07:37:44 51°14.051 2°55.463 12.456 3.003658 24.950947 12.365418
2005-05-17 07:38:44 51°14.19 2°55.358 12.3517 3.100827 25.900966 13.612665
2005-05-17 07:39:45 51°14.317 2°55.172 12.3242 3.159789 26.5252 13.34299
2005-05-17 07:40:45 51°14.409 2°54.902 12.2838 3.233815 27.229967 12.264289
2005-05-17 07:41:45 51°14.447 2°54.587 12.1641 3.328177 28.159183 13.3767
2005-05-17 07:42:44 51°14.405 2°54.277 12.0924 3.483336 29.715587 11.556392
2005-05-17 07:43:44 51°14.324 2°53.971 12.0842 3.524002 30.144952 10.5114
2005-05-17 07:44:45 51°14.226 2°53.665 12.058 3.519894 30.115431 10.747366
2005-05-17 07:45:44 51°14.124 2°53.372 12.0457 3.522949 30.160909 11.151879
2005-05-17 07:46:44 51°14.021 2°53.073 12.0554 3.524424 30.183802 11.792358
2005-05-17 07:47:45 51°13.901 2°52.787 12.0486 3.514626 30.092593 9.837212
2005-05-17 07:48:45 51°13.778 2°52.51 12.0658 3.524424 30.179996 10.241725
2005-05-17 07:49:45 51°13.665 2°52.223 12.0269 3.531483 30.271903 9.769794
2005-05-17 07:50:45 51°13.56 2°51.924 12.0302 3.528217 30.244648 9.331571
2005-05-17 07:51:45 51°13.453 2°51.633 12.047 3.437829 29.383886 10.174306
2005-05-17 07:52:44 51°13.347 2°51.344 12.0467 2.875888 24.111599 10.578819
2005-05-17 07:53:45 51°13.237 2°51.047 12.0413 2.678708 22.300491 10.342853
2005-05-17 07:54:44 51°13.129 2°50.761 12.0486 3.341029 28.460748 9.769794
2005-05-17 07:55:45 51°13.019 2°50.462 12.0428 3.41002 29.110727 9.567537
2005-05-17 07:56:44 51°12.91 2°50.175 12.0482 3.422766 29.235041 9.769794
2005-05-17 07:57:44 51°12.802 2°49.885 12.0438 3.234029 27.45893 9.938341
2005-05-17 07:58:44 51°12.69 2°49.597 12.0558 3.529692 30.242776 10.376563
2005-05-17 07:59:44 51°12.579 2°49.304 12.0229 3.531378 30.283641 10.174306
2005-05-17 08:00:44 51°12.468 2°49.008 12.0274 3.530851 30.281177 10.342853
2005-05-17 08:01:44 51°12.359 2°48.715 12.0469 3.528849 30.256392 10.309144
2005-05-17 08:02:45 51°12.247 2°48.406 12.0834 3.516523 30.122642 10.848494
2005-05-17 08:03:45 51°12.137 2°48.108 12.0743 3.517049 30.105493 11.017042
2005-05-17 08:04:45 51°12.023 2°47.812 12.1005 3.515258 30.090377 10.983332
2005-05-17 08:05:44 51°11.913 2°47.517 12.1016 3.513783 30.053635 11.017042
2005-05-17 08:06:45 51°11.8 2°47.217 12.0483 3.52337 30.162378 11.151879
2005-05-17 08:07:44 51°11.692 2°46.922 12.0556 3.515996 30.123336 11.253007
2005-05-17 08:08:45 51°11.578 2°46.618 12.0927 3.52158 30.165009 11.08446
2005-05-17 08:09:44 51°11.469 2°46.322 12.0423 3.522317 30.162508 10.882204
2005-05-17 08:10:44 51°11.36 2°46.019 12.0528 3.516734 30.136052 10.949623
2005-05-17 08:11:45 51°11.248 2°45.72 12.0656 3.522107 30.172555 10.848494
2005-05-17 08:12:45 51°11.141 2°45.419 12.0368 3.513573 30.088275 10.342853
2005-05-17 08:13:44 51°11.044 2°45.117 12.016 3.512098 30.096407 10.241725
2005-05-17 08:14:44 51°10.96 2°44.798 12.0186 3.511256 30.10106 10.54511
2005-05-17 08:15:44 51°10.878 2°44.473 12.0735 3.51568 30.134275 11.185589
2005-05-17 08:16:44 51°10.799 2°44.144 12.0936 3.52316 30.169884 10.713657
2005-05-17 08:17:45 51°10.718 2°43.816 12.1041 3.525899 30.179427 10.747366
2005-05-17 08:18:45 51°10.636 2°43.493 12.0853 3.528954 30.197671 10.208016
2005-05-17 08:19:45 51°10.558 2°43.166 12.0242 3.52158 30.160571 10.477691
2005-05-17 08:20:44 51°10.478 2°42.845 12.0038 3.516418 30.141925 9.837212
2005-05-17 08:21:44 51°10.397 2°42.523 12.0196 3.513258 30.132155 9.97205
2005-05-17 08:22:44 51°10.316 2°42.197 12.0304 3.516207 30.14563 10.073178
2005-05-17 08:23:44 51°10.238 2°41.873 12.0155 3.518103 30.150346 9.837212
2005-05-17 08:24:44 51°10.156 2°41.546 12.0036 3.514311 30.138374 8.927059
2005-05-17 08:25:45 51°10.079 2°41.211 11.9535 3.514732 30.142384 9.061896
2005-05-17 08:26:45 51°10.002 2°40.888 11.9296 3.500616 30.059349 7.814648
2005-05-17 08:27:45 51°9.925 2°40.561 11.9437 3.497245 30.039274 7.578683
2005-05-17 08:28:44 51°9.855 2°40.231 11.9406 3.502302 30.072237 7.612392
2005-05-17 08:29:45 51°9.779 2°39.903 11.9406 3.500195 30.061042 7.477554
2005-05-17 08:30:45 51°9.706 2°39.574 11.9753 3.492926 29.990518 7.275298
2005-05-17 08:31:44 51°9.634 2°39.25 11.9705 3.371364 28.808863 7.578683
2005-05-17 08:32:44 51°9.559 2°38.924 11.9749 3.39085 29.006857 7.544973
2005-05-17 08:33:45 51°9.485 2°38.593 11.9298 3.412865 29.227965 7.780939
2005-05-17 08:34:45 51°9.41 2°38.265 11.9193 3.415288 29.262074 8.28658
2005-05-17 08:35:45 51°9.337 2°37.934 11.9231 3.35546 28.703712 8.455127
2005-05-17 08:36:45 51°9.263 2°37.601 11.9369 3.448365 29.576428 8.151742
2005-05-17 08:37:44 51°9.197 2°37.303 11.9507 3.503987 30.093376 7.511264
2005-05-17 08:38:44 51°9.155 2°37.096 11.955 3.50641 30.10948 7.342717
2005-05-17 08:39:44 51°9.164 2°37.026 11.9517 3.505041 30.093256 7.443845
2005-05-17 08:40:45 51°9.159 2°37.026 11.9554 3.505989 30.106735 6.803366
2005-05-17 08:41:44 51°9.153 2°37.024 11.9468 3.505778 30.107267 7.309007
2005-05-17 08:42:45 51°9.146 2°37.022 11.9515 3.505041 30.102781 7.544973
2005-05-17 08:43:44 51°9.139 2°37.017 11.9416 3.504514 30.095221 7.915777
2005-05-17 08:44:44 51°9.133 2°37.011 11.9444 3.503145 30.091059 7.983195
2005-05-17 08:45:44 51°9.129 2°37.004 11.9483 3.503039 30.086245 7.983195
2005-05-17 08:46:45 51°9.123 2°36.996 11.9454 3.503355 30.087352 8.084324
2005-05-17 08:47:44 51°9.118 2°36.988 11.9497 3.503355 30.087352 7.915777
2005-05-17 08:48:44 51°9.114 2°36.981 11.9406 3.503355 30.081005 8.016905
2005-05-17 08:49:45 51°9.114 2°36.962 11.9521 3.502196 30.078213 8.28658
2005-05-17 08:50:45 51°9.138 2°36.916 11.9463 3.50188 30.070125 8.353999
2005-05-17 08:51:45 51°9.178 2°36.91 11.936 3.500932 30.066166 8.185452
2005-05-17 08:52:45 51°9.222 2°36.957 11.9495 3.501775 30.077371 7.983195
2005-05-17 08:53:45 51°9.273 2°37.041 11.981 3.504093 30.09057 7.612392
2005-05-17 08:54:44 51°9.31 2°37.128 12.0134 3.513574 30.147862 6.129178
2005-05-17 08:55:44 51°9.333 2°37.195 12.0314 3.519684 30.185064 5.252734
2005-05-17 08:56:44 51°9.347 2°37.246 12.0406 3.517893 30.154686 4.713383
2005-05-17 08:57:45 51°9.363 2°37.305 12.0302 3.52 30.171556 4.747093
2005-05-17 08:58:44 51°9.38 2°37.371 12.0395 3.520211 30.178005 4.645965
2005-05-17 08:59:44 51°9.396 2°37.442 12.0446 3.520527 30.177837 4.578546
2005-05-17 09:00:45 51°9.415 2°37.512 12.0477 3.520105 30.168749 4.544836
2005-05-17 09:01:44 51°9.436 2°37.579 12.0461 3.524951 30.21167 4.848221
2005-05-17 09:02:44 51°9.456 2°37.643 12.0506 3.524635 30.208028 5.117896
2005-05-17 09:03:45 51°9.48 2°37.706 12.0337 3.517261 30.144233 5.320153
2005-05-17 09:04:44 51°9.503 2°37.769 12.024 3.518209 30.160231 6.264016
2005-05-17 09:05:44 51°9.525 2°37.834 12.0156 3.515259 30.14232 6.668529
2005-05-17 09:06:45 51°9.544 2°37.9 12.0142 3.516102 30.153514 6.668529
2005-05-17 09:07:44 51°9.564 2°37.961 12.0269 3.514522 30.135937 6.60111
2005-05-17 09:08:45 51°9.583 2°38.021 12.0308 3.516945 30.153916 6.634819
2005-05-17 09:09:45 51°9.602 2°38.078 12.0328 3.517155 30.152747 6.398853
2005-05-17 09:10:45 51°9.62 2°38.133 12.018 3.519052 30.17079 6.668529
2005-05-17 09:11:45 51°9.639 2°38.19 12.0223 3.513573 30.127549 6.702238
2005-05-17 09:12:44 51°9.658 2°38.249 12.0266 3.51094 30.099954 6.702238
2005-05-17 09:13:44 51°9.678 2°38.309 12.0179 3.510518 30.092144 6.634819
2005-05-17 09:14:44 51°9.699 2°38.369 12.0231 3.516418 30.155252 6.668529
2005-05-17 09:15:44 51°9.72 2°38.433 12.0263 3.513257 30.123907 6.230306
2005-05-17 09:16:44 51°9.741 2°38.493 12.0327 3.517577 30.159296 6.365144
2005-05-17 09:17:45 51°9.76 2°38.555 12.0252 3.513257 30.115665 6.803366
2005-05-17 09:18:45 51°9.779 2°38.617 12.0222 3.514416 30.135569 7.207879
2005-05-17 09:19:44 51°9.797 2°38.677 12.0434 3.513784 30.123212 7.275298
2005-05-17 09:20:44 51°9.815 2°38.736 12.0358 3.517577 30.146604 7.443845
2005-05-17 09:21:44 51°9.833 2°38.794 12.0244 3.513573 30.116136 8.016905
2005-05-17 09:22:45 51°9.85 2°38.852 12.0118 3.510202 30.094206 7.74723
2005-05-17 09:23:45 51°9.866 2°38.911 12.0009 3.50641 30.065723 7.578683
2005-05-17 09:24:45 51°9.883 2°38.985 11.9887 3.508622 30.095647 7.511264
2005-05-17 09:25:44 51°9.901 2°39.082 11.9824 3.506937 30.092917 7.073042
2005-05-17 09:26:45 51°9.921 2°39.188 11.9858 3.493979 29.973359 6.870785
2005-05-17 09:27:44 51°9.937 2°39.255 11.9845 3.492504 29.956165 6.904494
2005-05-17 09:28:45 51°9.946 2°39.298 11.9873 3.486078 29.893761 6.837076
2005-05-17 09:29:45 51°9.949 2°39.321 11.9917 3.489133 29.919043 7.14046
2005-05-17 09:30:45 51°9.962 2°39.359 11.9905 3.488817 29.912255 7.17417
2005-05-17 09:31:45 51°10.056 2°39.501 12.0057 3.491872 29.940054 7.275298
2005-05-17 09:32:45 51°10.216 2°39.613 12.0956 3.501669 30.013038 7.241589
2005-05-17 09:33:44 51°10.375 2°39.838 12.0616 3.516417 30.080529 8.353999
2005-05-17 09:34:44 51°10.521 2°40.095 12.0309 3.526953 30.226261 6.904494
2005-05-17 09:35:44 51°10.664 2°40.358 12.005 3.524846 30.221476 6.702238
2005-05-17 09:36:45 51°10.814 2°40.615 11.9673 3.526111 30.269821 6.803366
2005-05-17 09:37:44 51°10.959 2°40.862 11.9894 3.523266 30.252922 5.421281
2005-05-17 09:38:46 51°11.111 2°41.121 11.9777 3.523477 30.255568 5.219024
2005-05-17 09:39:45 51°11.257 2°41.367 11.9458 3.521686 30.241688 4.983059
2005-05-17 09:40:44 51°11.404 2°41.614 11.9249 3.526006 30.313541 4.679674
2005-05-17 09:41:44 51°11.539 2°41.882 11.9286 3.529483 30.352485 3.533554
2005-05-17 09:42:44 51°11.668 2°42.163 11.9363 3.525795 30.31409 4.409999
2005-05-17 09:43:44 51°11.796 2°42.441 11.9457 3.525163 30.301661 5.084187
2005-05-17 09:44:45 51°11.918 2°42.727 11.9495 3.524004 30.289966 5.387571
2005-05-17 09:45:45 51°12.03 2°43.024 11.9351 3.52864 30.332272 5.353862
2005-05-17 09:46:45 51°12.134 2°43.331 11.9102 3.529377 30.345713 5.353862
2005-05-17 09:47:45 51°12.215 2°43.653 11.9317 3.53317 30.402451 5.758375
2005-05-17 09:48:44 51°12.296 2°43.971 11.9389 3.545286 30.500164 5.522409
2005-05-17 09:49:45 51°12.378 2°44.293 11.9291 3.5377 30.4258 5.252734
2005-05-17 09:50:44 51°12.456 2°44.61 11.9436 3.543811 30.495092 5.421281
2005-05-17 09:51:45 51°12.523 2°44.938 11.9341 3.538333 30.435048 7.17417
2005-05-17 09:52:45 51°12.603 2°45.255 11.9409 3.547077 30.522427 8.82593
2005-05-17 09:53:44 51°12.684 2°45.567 11.9568 3.54655 30.507086 8.960768
2005-05-17 09:54:44 51°12.779 2°45.879 11.9802 3.54655 30.489066 9.601247
2005-05-17 09:55:45 51°12.877 2°46.194 11.9894 3.545918 30.467608 9.264153
2005-05-17 09:56:45 51°12.971 2°46.502 12.0091 3.545812 30.454404 9.365281
2005-05-17 09:57:45 51°13.07 2°46.804 12.0255 3.547182 30.457836 9.533828
2005-05-17 09:58:44 51°13.165 2°47.107 12.0505 3.544548 30.417352 9.533828
2005-05-17 09:59:45 51°13.261 2°47.421 12.0468 3.547181 30.425791 9.634956
2005-05-17 10:00:45 51°13.355 2°47.731 12.0479 3.551185 30.46584 9.533828
2005-05-17 10:01:45 51°13.451 2°48.042 12.0362 3.554556 30.497954 9.264153
2005-05-17 10:02:45 51°13.553 2°48.251 12.0438 3.556558 30.525375 8.657383
2005-05-17 10:03:44 51°13.618 2°48.297 12.0675 3.554662 30.497674 7.915777
2005-05-17 10:04:45 51°13.662 2°48.307 12.0765 3.559824 30.52887 6.702238
2005-05-17 10:05:45 51°13.698 2°48.327 12.0501 3.563512 30.568485 6.769657
2005-05-17 10:06:44 51°13.725 2°48.371 12.0043 3.557296 30.534974 7.578683
2005-05-17 10:07:45 51°13.741 2°48.435 12.0006 3.558455 30.572409 8.016905
2005-05-17 10:08:45 51°13.755 2°48.489 12.0155 3.563091 30.61083 7.882067
2005-05-17 10:09:45 51°13.774 2°48.547 12.036 3.565092 30.62025 8.118033
2005-05-17 10:10:45 51°13.791 2°48.605 12.0313 3.566883 30.626368 7.983195
2005-05-17 10:11:44 51°13.804 2°48.658 12.0506 3.56446 30.600688 7.814648
2005-05-17 10:12:45 51°13.816 2°48.715 12.0585 3.568253 30.623311 7.983195
2005-05-17 10:13:45 51°13.829 2°48.773 12.0787 3.566672 30.601168 8.353999
2005-05-17 10:14:45 51°13.845 2°48.835 12.0588 3.568042 30.612929 8.219161
2005-05-17 10:15:44 51°13.859 2°48.895 12.0637 3.560878 30.545968 7.71352
2005-05-17 10:16:45 51°13.874 2°48.956 12.0572 3.562353 30.558732 7.578683
2005-05-17 10:17:45 51°13.887 2°49.019 12.0593 3.55856 30.52646 7.646101
2005-05-17 10:18:45 51°13.901 2°49.079 12.0577 3.561931 30.559217 7.71352
2005-05-17 10:19:45 51°13.917 2°49.141 12.0431 3.559719 30.545852 7.71352
2005-05-17 10:20:43 51°13.933 2°49.198 12.035 3.562458 30.579031 7.511264
2005-05-17 10:21:45 51°13.95 2°49.26 12.0441 3.562458 30.578388 7.14046
2005-05-17 10:22:44 51°13.969 2°49.32 12.0545 3.558349 30.529591 6.904494
2005-05-17 10:23:44 51°13.987 2°49.384 12.0667 3.56151 30.555845 6.735947
2005-05-17 10:24:45 51°14.004 2°49.447 12.075 3.56151 30.548134 6.60111
2005-05-17 10:25:44 51°14.019 2°49.507 12.0829 3.557401 30.500025 6.735947
2005-05-17 10:26:45 51°14.037 2°49.57 12.0789 3.563933 30.56093 6.634819
2005-05-17 10:27:44 51°14.055 2°49.629 12.0818 3.559929 30.52153 6.331435
2005-05-17 10:28:45 51°14.075 2°49.693 12.0953 3.557822 30.498266 6.331435
2005-05-17 10:29:44 51°14.091 2°49.754 12.0927 3.555293 30.468438 5.758375
2005-05-17 10:30:44 51°14.11 2°49.816 12.0781 3.555504 30.475566 6.162888
2005-05-17 10:31:44 51°14.129 2°49.877 12.0709 3.557927 30.501833 6.264016
2005-05-17 10:32:45 51°14.147 2°49.941 12.0602 3.552027 30.452723 5.994341
2005-05-17 10:33:44 51°14.165 2°49.999 12.0692 3.55424 30.479551 6.499982
2005-05-17 10:34:45 51°14.184 2°50.059 12.0774 3.55424 30.47058 6.702238
2005-05-17 10:35:45 51°14.203 2°50.121 12.1007 3.555188 30.473199 6.466272
2005-05-17 10:36:44 51°14.219 2°50.183 12.1002 3.550974 30.424784 6.297725
2005-05-17 10:37:45 51°14.237 2°50.243 12.107 3.55424 30.450095 6.264016
2005-05-17 10:38:44 51°14.253 2°50.312 12.1169 3.554661 30.450905 6.264016
2005-05-17 10:39:45 51°14.261 2°50.399 12.1192 3.550447 30.407635 6.02805
2005-05-17 10:40:44 51°14.261 2°50.469 12.1499 3.554661 30.428537 5.758375
2005-05-17 10:41:45 51°14.258 2°50.514 12.154 3.54265 30.301067 5.690956
2005-05-17 10:42:45 51°14.253 2°50.541 12.1659 3.538119 30.252982 6.499982
2005-05-17 10:43:45 51°14.247 2°50.557 12.1689 3.550657 30.370097 7.106751
2005-05-17 10:44:45 51°14.24 2°50.57 12.1454 3.546443 30.333264 7.443845
2005-05-17 10:45:45 51°14.266 2°50.736 12.1347 3.549287 30.375565 7.71352
2005-05-17 10:46:45 51°14.32 2°51.042 12.1835 3.549498 30.373743 7.74723
2005-05-17 10:47:45 51°14.377 2°51.364 12.1635 3.549919 30.361184 8.151742
2005-05-17 10:48:45 51°14.436 2°51.691 12.1495 3.548023 30.341906 8.28658
2005-05-17 10:49:45 51°14.489 2°52.019 12.1657 3.550762 30.369187 8.151742
2005-05-17 10:50:44 51°14.536 2°52.342 12.1852 3.550762 30.357729 8.050614
2005-05-17 10:51:45 51°14.578 2°52.684 12.1906 3.55329 30.376 8.320289
2005-05-17 10:52:44 51°14.59 2°53.015 12.1716 3.569516 30.547326 8.792221
2005-05-17 10:53:45 51°14.571 2°53.362 12.1596 3.553185 30.390285 8.994477
2005-05-17 10:54:45 51°14.532 2°53.698 12.2669 3.536644 30.192768 9.129315
2005-05-17 10:55:45 51°14.5 2°54.035 12.2902 3.516204 29.94591 10.073178
2005-05-17 10:56:43 51°14.467 2°54.362 12.3246 3.524738 30.032216 11.623811
2005-05-17 10:57:45 51°14.43 2°54.699 12.3005 3.526002 30.009061 10.679947
2005-05-17 10:58:45 51°14.375 2°54.989 12.3459 3.527687 30.024356 10.376563
2005-05-17 10:59:45 51°14.287 2°55.225 12.4134 3.503351 29.767905 10.781076
2005-05-17 11:00:45 51°14.184 2°55.381 12.3947 3.31975 27.991545 12.567674
2005-05-17 11:01:45 51°14.082 2°55.462 12.6634 1.599531 10.955494 0.297452
2005-05-17 11:02:45 51°13.98 2°55.519 12.8134 0.240738 1.302771 0.230033
2005-05-17 11:03:45 51°13.877 2°55.582 12.94 0.099233 0.52185 0.196324
2005-05-17 11:04:44 51°13.787 2°55.644 13.0754 0.080207 0.426338 0.196324
2005-05-17 11:05:45 51°13.706 2°55.745 14.6602 0.080831 0.431858 0.230033
2005-05-17 11:06:44 51°13.656 2°55.866 15.2029 0.085509 0.458697 0.230033
2005-05-17 11:07:45 51°13.623 2°55.994 15.213 0.102976 0.557329 0.196324
2005-05-17 11:08:45 51°13.601 2°56.082 15.1694 0.103808 0.563473 0.162614
2005-05-17 11:09:45 51°13.595 2°56.1 15.2842 0.104848 0.5695 0.196324